Time;durP1;ratioP1;P1;durP2;ratioP2;P2;SDS_P1;SDS_P2;PMS_P1;PMS_P2;Temp;Humidity;BMP_temperature;BMP_pressure;BME280_temperature;BME280_humidity;BME280_pressure;Samples;Min_cycle;Max_cycle;Signal;HPM_P1;HPM_P2
2021/12/31 00:01:12;;;;;;;17.85;4.15;;;12.00;99.90;;;;;;4995958;28;20096;-72
2021/12/31 00:03:38;;;;;;;16.77;4.68;;;12.00;99.90;;;;;;4996076;28;20057;-73
2021/12/31 00:06:06;;;;;;;14.27;3.10;;;12.00;99.90;;;;;;4995148;28;20050;-73
2021/12/31 00:08:33;;;;;;;14.80;4.05;;;12.00;99.90;;;;;;4995731;28;20497;-73
2021/12/31 00:11:01;;;;;;;12.00;4.35;;;12.00;99.90;;;;;;5013229;28;20074;-73
2021/12/31 00:13:28;;;;;;;15.70;3.88;;;11.90;99.90;;;;;;4995250;28;20058;-71
2021/12/31 00:15:55;;;;;;;19.25;4.43;;;11.90;99.90;;;;;;4995574;28;20046;-72
2021/12/31 00:18:22;;;;;;;12.05;3.38;;;11.90;99.90;;;;;;4995932;28;20085;-73
2021/12/31 00:20:49;;;;;;;19.50;3.30;;;11.80;99.90;;;;;;4995073;28;20453;-72
2021/12/31 00:23:20;;;;;;;12.43;4.20;;;11.80;99.90;;;;;;4992344;28;20477;-72
2021/12/31 00:25:46;;;;;;;10.27;4.07;;;12.00;99.90;;;;;;4975570;28;20061;-72
2021/12/31 00:28:15;;;;;;;15.18;3.08;;;11.80;99.90;;;;;;4976146;28;20402;-72
2021/12/31 00:30:42;;;;;;;18.65;4.90;;;11.70;99.90;;;;;;4976169;28;20149;-72
2021/12/31 00:33:10;;;;;;;19.25;4.07;;;11.70;99.90;;;;;;4975648;28;20058;-72
2021/12/31 00:35:39;;;;;;;20.13;3.58;;;11.60;99.90;;;;;;4976468;28;20050;-72
2021/12/31 00:38:06;;;;;;;20.33;5.15;;;11.70;99.90;;;;;;4993544;28;20118;-72
2021/12/31 00:40:33;;;;;;;20.42;5.43;;;11.70;99.90;;;;;;4975544;28;20046;-72
2021/12/31 00:43:00;;;;;;;18.95;3.80;;;11.60;99.90;;;;;;4976585;28;20413;-72
2021/12/31 00:45:28;;;;;;;13.73;4.88;;;11.70;99.90;;;;;;4975801;28;20092;-72
2021/12/31 00:47:55;;;;;;;16.13;3.70;;;11.60;99.90;;;;;;4991954;28;20086;-72
2021/12/31 00:50:23;;;;;;;13.10;3.95;;;11.60;99.90;;;;;;4976058;28;20502;-73
2021/12/31 00:52:50;;;;;;;15.02;4.05;;;11.60;99.90;;;;;;4996874;28;20050;-73
2021/12/31 00:55:17;;;;;;;14.93;4.55;;;11.60;99.90;;;;;;4994594;28;20140;-73
2021/12/31 00:57:44;;;;;;;16.42;4.97;;;11.60;99.90;;;;;;4995609;28;20137;-71
2021/12/31 01:00:14;;;;;;;18.60;3.95;;;11.60;99.90;;;;;;4995141;28;20112;-71
2021/12/31 01:02:43;;;;;;;12.90;4.32;;;11.50;99.90;;;;;;4995736;28;20050;-72
2021/12/31 01:05:11;;;;;;;14.10;3.58;;;11.60;99.90;;;;;;4999323;28;20060;-72
2021/12/31 01:07:38;;;;;;;18.13;4.35;;;11.60;99.90;;;;;;4999029;28;20073;-72
2021/12/31 01:10:06;;;;;;;17.48;4.28;;;11.60;99.90;;;;;;4998130;28;20086;-72
2021/12/31 01:12:33;;;;;;;13.45;3.50;;;11.60;99.90;;;;;;5016823;28;20104;-72
2021/12/31 01:15:03;;;;;;;19.30;4.05;;;11.50;99.90;;;;;;4998413;28;20089;-74
2021/12/31 01:17:50;;;;;;;11.03;3.60;;;11.60;99.90;;;;;;4999175;28;20045;-72
2021/12/31 01:20:20;;;;;;;15.35;3.53;;;11.60;99.90;;;;;;4998890;28;20292;-73
2021/12/31 01:22:47;;;;;;;11.15;4.38;;;11.60;99.90;;;;;;4998322;28;20053;-73
2021/12/31 01:25:14;;;;;;;13.35;4.28;;;11.60;99.90;;;;;;4999311;28;20512;-73
2021/12/31 01:27:42;;;;;;;14.63;4.45;;;11.70;99.90;;;;;;4998811;28;20046;-73
2021/12/31 01:30:12;;;;;;;10.85;3.88;;;11.70;99.90;;;;;;4998149;28;20513;-73
2021/12/31 01:32:39;;;;;;;13.07;4.60;;;11.70;99.90;;;;;;4998919;28;20058;-73
2021/12/31 01:35:06;;;;;;;15.20;3.45;;;11.60;99.90;;;;;;4998810;28;20325;-73
2021/12/31 01:37:34;;;;;;;14.02;3.88;;;11.70;99.90;;;;;;4998275;28;20050;-74
2021/12/31 01:40:01;;;;;;;15.77;4.55;;;11.70;99.90;;;;;;4998392;28;20081;-73
2021/12/31 01:42:32;;;;;;;10.50;3.72;;;11.70;99.90;;;;;;4998487;28;20060;-73
2021/12/31 01:45:04;;;;;;;25.27;4.13;;;11.80;99.90;;;;;;4998281;28;20064;-73
2021/12/31 01:47:44;;;;;;;11.77;3.38;;;11.80;99.90;;;;;;4998467;28;20050;-73
2021/12/31 01:50:12;;;;;;;14.20;4.10;;;11.80;99.90;;;;;;4997775;28;20132;-73
2021/12/31 01:52:40;;;;;;;13.52;3.55;;;11.80;99.90;;;;;;4998522;28;20088;-72
2021/12/31 01:55:11;;;;;;;15.25;4.32;;;11.80;99.90;;;;;;4998453;28;20064;-73
2021/12/31 01:57:38;;;;;;;;;;;11.90;99.90;;;;;;4997994;28;20049;-73
2021/12/31 02:00:06;;;;;;;18.73;4.38;;;11.90;99.90;;;;;;4997982;28;19922;-73
2021/12/31 02:02:33;;;;;;;11.50;3.45;;;11.90;99.90;;;;;;4998436;28;20093;-73
2021/12/31 02:05:00;;;;;;;12.70;3.67;;;11.90;99.90;;;;;;4997565;28;20501;-72
2021/12/31 02:07:27;;;;;;;11.63;3.45;;;12.00;99.90;;;;;;4997939;28;20552;-73
2021/12/31 02:09:55;;;;;;;12.25;3.30;;;12.00;99.90;;;;;;4997621;28;20081;-73
2021/12/31 02:12:22;;;;;;;12.05;3.10;;;12.00;99.90;;;;;;5014884;28;20128;-73
2021/12/31 02:14:51;;;;;;;14.40;3.97;;;12.00;99.90;;;;;;4998049;28;20140;-73
2021/12/31 02:17:18;;;;;;;14.15;3.50;;;12.00;99.90;;;;;;4998119;28;20077;-73
2021/12/31 02:20:00;;;;;;;18.35;3.33;;;12.00;99.90;;;;;;4993879;28;20493;-73
2021/12/31 02:22:28;;;;;;;11.20;3.38;;;12.00;99.90;;;;;;4978454;28;20132;-73
2021/12/31 02:24:56;;;;;;;11.75;3.50;;;11.90;99.90;;;;;;4998071;28;20121;-73
2021/12/31 02:27:24;;;;;;;13.63;3.17;;;11.90;99.90;;;;;;4997196;28;20049;-73
2021/12/31 02:29:51;;;;;;;16.27;3.95;;;11.90;99.90;;;;;;4997367;28;20057;-72
2021/12/31 02:32:18;;;;;;;18.52;4.97;;;11.90;99.90;;;;;;4997169;28;20081;-72
2021/12/31 02:34:46;;;;;;;14.35;4.15;;;11.90;99.90;;;;;;4997591;28;20085;-73
2021/12/31 02:37:14;;;;;;;14.75;3.78;;;11.90;99.90;;;;;;4998032;28;20472;-72
2021/12/31 02:39:43;;;;;;;11.90;3.30;;;11.90;99.90;;;;;;4996673;28;20136;-72
2021/12/31 02:42:10;;;;;;;15.63;4.10;;;12.00;99.90;;;;;;4997377;28;20145;-73
2021/12/31 02:44:37;;;;;;;16.13;4.07;;;11.90;99.90;;;;;;4997487;28;20520;-73
2021/12/31 02:47:06;;;;;;;10.90;4.18;;;11.90;99.90;;;;;;4996696;28;20482;-72
2021/12/31 02:49:37;;;;;;;7.53;3.20;;;11.90;99.90;;;;;;4997555;28;20065;-72
2021/12/31 02:52:06;;;;;;;12.38;3.40;;;11.90;99.90;;;;;;4997094;28;20397;-72
2021/12/31 02:54:37;;;;;;;8.57;3.50;;;12.00;99.90;;;;;;4996462;28;20078;-72
2021/12/31 02:57:04;;;;;;;11.98;3.70;;;12.00;99.90;;;;;;4996843;28;20133;-72
2021/12/31 02:59:31;;;;;;;14.40;3.60;;;12.00;99.90;;;;;;4997263;28;20133;-72
2021/12/31 03:01:59;;;;;;;11.25;3.47;;;12.00;99.90;;;;;;4995934;28;20129;-72
2021/12/31 03:04:28;;;;;;;10.02;3.33;;;12.00;99.90;;;;;;4997237;28;20065;-73
2021/12/31 03:06:57;;;;;;;11.73;3.13;;;12.00;99.90;;;;;;4996998;28;20474;-73
2021/12/31 03:09:27;;;;;;;7.30;2.90;;;12.00;99.90;;;;;;4996484;28;20509;-72
2021/12/31 03:11:57;;;;;;;10.23;3.10;;;12.00;99.90;;;;;;4996952;28;20058;-72
2021/12/31 03:14:26;;;;;;;8.73;3.00;;;12.00;99.90;;;;;;4996747;28;20157;-71
2021/12/31 03:16:53;;;;;;;10.93;3.58;;;12.00;99.90;;;;;;4996852;28;20058;-72
2021/12/31 03:19:21;;;;;;;11.30;3.15;;;12.10;99.90;;;;;;4996611;28;20084;-72
2021/12/31 03:21:48;;;;;;;10.13;3.28;;;12.10;99.90;;;;;;4996098;28;20053;-72
2021/12/31 03:24:15;;;;;;;10.45;2.78;;;12.10;99.90;;;;;;4996885;28;20081;-71
2021/12/31 03:26:42;;;;;;;12.70;3.25;;;12.20;99.90;;;;;;4996151;28;20506;-71
2021/12/31 03:29:10;;;;;;;11.95;3.80;;;12.20;99.90;;;;;;5012394;28;20046;-71
2021/12/31 03:31:37;;;;;;;10.70;3.17;;;12.10;99.90;;;;;;4996767;28;20570;-72
2021/12/31 03:34:04;;;;;;;12.45;3.15;;;12.20;99.90;;;;;;4996665;28;20054;-72
2021/12/31 03:36:31;;;;;;;14.35;3.38;;;12.10;99.90;;;;;;5013550;28;20105;-72
2021/12/31 03:38:57;;;;;;;9.15;3.30;;;12.20;99.90;;;;;;4996904;28;20096;-71
2021/12/31 03:41:25;;;;;;;9.68;3.38;;;12.20;99.90;;;;;;4996469;28;20534;-71
2021/12/31 03:43:52;;;;;;;8.70;2.90;;;12.20;99.90;;;;;;4995796;28;20383;-72
2021/12/31 03:46:20;;;;;;;11.85;3.08;;;12.20;99.90;;;;;;4996012;28;20132;-72
2021/12/31 03:48:47;;;;;;;11.18;3.33;;;12.10;99.90;;;;;;4996242;28;20050;-73
2021/12/31 03:51:14;;;;;;;12.68;3.53;;;12.10;99.90;;;;;;4995549;28;20107;-71
2021/12/31 03:53:41;;;;;;;12.65;2.83;;;12.10;99.90;;;;;;4995869;28;20143;-73
2021/12/31 03:56:08;;;;;;;5.45;2.90;;;12.10;99.90;;;;;;4995910;28;20100;-72
2021/12/31 03:58:35;;;;;;;14.15;3.53;;;12.10;99.90;;;;;;4995558;28;20200;-72
2021/12/31 04:01:01;;;;;;;7.90;2.75;;;12.20;99.90;;;;;;4996099;28;20085;-72
2021/12/31 04:03:30;;;;;;;13.00;2.85;;;12.20;99.90;;;;;;4996420;28;20054;-72
2021/12/31 04:05:57;;;;;;;11.85;3.10;;;12.20;99.90;;;;;;4995586;28;20089;-72
2021/12/31 04:08:24;;;;;;;16.33;3.17;;;12.20;99.90;;;;;;4995901;28;20458;-73
2021/12/31 04:10:51;;;;;;;9.45;3.13;;;12.10;99.90;;;;;;4995424;28;20089;-72
2021/12/31 04:13:18;;;;;;;5.75;2.10;;;12.10;99.90;;;;;;4996094;28;20536;-73
2021/12/31 04:15:45;;;;;;;8.43;2.30;;;12.10;99.90;;;;;;4996136;28;20573;-73
2021/12/31 04:18:12;;;;;;;9.90;2.50;;;12.10;99.90;;;;;;4995210;28;20509;-72
2021/12/31 04:20:42;;;;;;;8.23;2.70;;;12.20;99.90;;;;;;4996283;28;20478;-72
2021/12/31 04:23:14;;;;;;;9.13;3.20;;;12.20;99.90;;;;;;4995758;28;20050;-72
2021/12/31 04:25:41;;;;;;;9.20;2.50;;;12.30;99.90;;;;;;4995492;28;20493;-72
2021/12/31 04:28:08;;;;;;;11.60;2.88;;;12.30;99.90;;;;;;5013080;28;20046;-72
2021/12/31 04:30:36;;;;;;;11.77;3.40;;;12.30;99.90;;;;;;4995757;28;20096;-73
2021/12/31 04:33:03;;;;;;;11.57;4.20;;;12.40;99.90;;;;;;4994933;28;20520;-71
2021/12/31 04:35:30;;;;;;;9.00;2.92;;;12.40;99.90;;;;;;4995592;28;20049;-72
2021/12/31 04:37:58;;;;;;;10.35;3.58;;;12.40;99.90;;;;;;4994804;28;20117;-72
2021/12/31 04:40:25;;;;;;;9.98;3.15;;;12.40;99.90;;;;;;4994749;28;20054;-72
2021/12/31 04:42:52;;;;;;;12.35;3.72;;;12.30;99.90;;;;;;4995590;28;20061;-73
2021/12/31 04:45:19;;;;;;;10.43;3.08;;;12.40;99.90;;;;;;4995619;28;20085;-73
2021/12/31 04:47:47;;;;;;;10.85;2.83;;;12.30;99.90;;;;;;4994562;28;20134;-72
2021/12/31 04:50:14;;;;;;;11.75;3.30;;;12.30;99.90;;;;;;4992260;28;20533;-72
2021/12/31 04:52:41;;;;;;;6.10;2.35;;;12.40;99.90;;;;;;4978963;28;20057;-72
2021/12/31 04:55:11;;;;;;;9.27;2.70;;;12.40;99.90;;;;;;4995024;28;20060;-73
2021/12/31 04:57:39;;;;;;;10.27;3.28;;;12.50;99.90;;;;;;4995348;28;20077;-72
2021/12/31 05:00:07;;;;;;;8.65;3.10;;;12.50;99.90;;;;;;4995260;28;20474;-72
2021/12/31 05:02:34;;;;;;;8.70;3.75;;;12.50;99.90;;;;;;4995156;28;20141;-72
2021/12/31 05:05:02;;;;;;;6.20;2.40;;;12.50;99.90;;;;;;4995638;28;20477;-72
2021/12/31 05:07:29;;;;;;;9.10;2.83;;;12.50;99.90;;;;;;4994560;28;20050;-73
2021/12/31 05:09:55;;;;;;;6.72;2.45;;;12.50;99.90;;;;;;4995265;28;20049;-73
2021/12/31 05:12:25;;;;;;;6.10;2.30;;;12.50;99.90;;;;;;4995506;28;20089;-72
2021/12/31 05:14:52;;;;;;;8.68;2.50;;;12.50;99.90;;;;;;4994978;28;20120;-73
2021/12/31 05:17:18;;;;;;;7.45;2.20;;;12.40;99.90;;;;;;4995153;28;20046;-73
2021/12/31 05:19:45;;;;;;;6.22;2.28;;;12.40;99.90;;;;;;4995097;28;20132;-71
2021/12/31 05:22:12;;;;;;;5.32;2.40;;;12.40;99.90;;;;;;4994504;28;20140;-73
2021/12/31 05:24:40;;;;;;;6.88;2.42;;;12.40;99.90;;;;;;4995021;28;20132;-72
2021/12/31 05:27:07;;;;;;;5.05;2.42;;;12.40;99.90;;;;;;4995189;28;20085;-72
2021/12/31 05:29:36;;;;;;;5.90;2.78;;;12.40;99.90;;;;;;5012285;28;20085;-72
2021/12/31 05:32:04;;;;;;;6.80;2.40;;;12.30;99.90;;;;;;4994771;28;20142;-72
2021/12/31 05:34:30;;;;;;;10.50;2.20;;;12.20;99.90;;;;;;4995240;28;20054;-73
2021/12/31 05:36:57;;;;;;;8.57;2.58;;;12.20;99.90;;;;;;4994333;28;20089;-73
2021/12/31 05:39:25;;;;;;;8.15;2.67;;;12.20;99.90;;;;;;4995185;28;20140;-73
2021/12/31 05:41:52;;;;;;;7.80;2.70;;;12.10;99.90;;;;;;4994691;28;20046;-73
2021/12/31 05:44:18;;;;;;;5.63;2.28;;;12.10;99.90;;;;;;4994630;28;20133;-73
2021/12/31 05:46:49;;;;;;;4.68;2.38;;;12.10;99.90;;;;;;4995142;28;20462;-73
2021/12/31 05:49:16;;;;;;;;;;;12.10;99.90;;;;;;4996458;28;20144;-74
2021/12/31 05:51:43;;;;;;;6.95;2.40;;;12.20;99.90;;;;;;4998597;28;19929;-74
2021/12/31 05:54:10;;;;;;;4.15;2.47;;;12.20;99.90;;;;;;4998649;28;20084;-73
2021/12/31 05:56:37;;;;;;;9.52;2.58;;;12.20;99.90;;;;;;4997551;28;20136;-73
2021/12/31 05:59:03;;;;;;;4.60;2.15;;;12.20;99.90;;;;;;4998344;28;20104;-72
2021/12/31 06:01:30;;;;;;;9.95;2.35;;;12.20;99.90;;;;;;4998302;28;20085;-72
2021/12/31 06:03:58;;;;;;;5.05;2.50;;;12.20;99.90;;;;;;4997793;28;20144;-72
2021/12/31 06:06:25;;;;;;;7.57;3.05;;;12.20;99.90;;;;;;4997983;28;20136;-72
2021/12/31 06:08:52;;;;;;;6.45;2.42;;;12.20;99.90;;;;;;4997824;28;20129;-73
2021/12/31 06:11:19;;;;;;;6.75;2.70;;;12.50;99.90;;;;;;4997521;28;20135;-73
2021/12/31 06:13:49;;;;;;;7.43;2.22;;;12.40;99.90;;;;;;5015534;28;20132;-73
2021/12/31 06:16:16;;;;;;;8.10;2.88;;;12.40;99.90;;;;;;5015899;28;20050;-72
2021/12/31 06:18:43;;;;;;;6.90;2.78;;;12.50;99.90;;;;;;4994006;28;20046;-72
2021/12/31 06:21:12;;;;;;;5.53;2.15;;;12.40;99.90;;;;;;4978347;28;20093;-73
2021/12/31 06:23:39;;;;;;;6.78;2.47;;;12.50;99.90;;;;;;4978495;28;20081;-72
2021/12/31 06:26:05;;;;;;;6.20;2.38;;;12.50;99.90;;;;;;4977740;28;20078;-73
2021/12/31 06:28:32;;;;;;;4.50;2.40;;;12.50;99.90;;;;;;4978157;28;20092;-72
2021/12/31 06:30:59;;;;;;;6.93;2.80;;;12.50;99.90;;;;;;4978215;28;20089;-73
2021/12/31 06:33:26;;;;;;;7.50;3.53;;;12.40;99.90;;;;;;4985142;28;20141;-73
2021/12/31 06:35:52;;;;;;;4.40;2.40;;;12.40;99.90;;;;;;4978398;28;20478;-73
2021/12/31 06:38:21;;;;;;;8.52;2.58;;;12.50;99.90;;;;;;4977724;28;20088;-73
2021/12/31 06:40:47;;;;;;;5.20;2.10;;;12.40;99.90;;;;;;4977766;28;20509;-73
2021/12/31 06:43:14;;;;;;;8.02;2.65;;;12.40;99.90;;;;;;4978255;28;20109;-73
2021/12/31 06:45:41;;;;;;;9.10;2.22;;;12.40;99.90;;;;;;4977604;28;20548;-74
2021/12/31 06:48:08;;;;;;;5.43;2.67;;;12.40;99.90;;;;;;4978685;28;20082;-72
2021/12/31 06:50:35;;;;;;;4.15;2.00;;;12.40;99.90;;;;;;4997278;28;20147;-71
2021/12/31 06:53:02;;;;;;;4.70;2.25;;;12.40;99.90;;;;;;5014197;28;20092;-72
2021/12/31 06:55:32;;;;;;;6.68;2.50;;;12.40;99.90;;;;;;4997364;28;20449;-72
2021/12/31 06:57:59;;;;;;;7.07;2.35;;;12.40;99.90;;;;;;4997094;28;20050;-73
2021/12/31 07:00:26;;;;;;;3.80;2.40;;;12.40;99.90;;;;;;4995715;28;20085;-72
2021/12/31 07:03:04;;;;;;;5.80;2.33;;;12.40;99.90;;;;;;4996680;28;20093;-73
2021/12/31 07:05:32;;;;;;;5.88;2.42;;;12.40;99.90;;;;;;4997138;28;20050;-72
2021/12/31 07:07:58;;;;;;;6.22;2.85;;;12.40;99.90;;;;;;5013762;28;20139;-73
2021/12/31 07:10:25;;;;;;;4.78;2.13;;;12.40;99.90;;;;;;4997103;28;20130;-73
2021/12/31 07:12:58;;;;;;;5.07;2.30;;;12.40;99.90;;;;;;4996697;28;20082;-72
2021/12/31 07:15:25;;;;;;;6.22;2.10;;;12.30;99.90;;;;;;4996419;28;20092;-72
2021/12/31 07:17:52;;;;;;;8.18;2.30;;;12.30;99.90;;;;;;4996929;28;20049;-72
2021/12/31 07:20:20;;;;;;;8.45;2.63;;;12.30;99.90;;;;;;4996443;28;20103;-72
2021/12/31 07:22:47;;;;;;;4.57;2.45;;;12.30;99.90;;;;;;4996457;28;20147;-72
2021/12/31 07:25:14;;;;;;;4.20;1.98;;;12.30;99.90;;;;;;4996558;28;20141;-72
2021/12/31 07:27:40;;;;;;;9.40;3.30;;;12.30;99.90;;;;;;4996144;28;20505;-72
2021/12/31 07:30:12;;;;;;;3.65;2.53;;;12.30;99.90;;;;;;4996400;28;20065;-72
2021/12/31 07:32:39;;;;;;;6.65;2.03;;;12.20;99.90;;;;;;4996723;28;20050;-72
2021/12/31 07:35:07;;;;;;;4.03;2.35;;;12.20;99.90;;;;;;4995550;28;20053;-72
2021/12/31 07:37:33;;;;;;;5.63;2.28;;;12.10;99.90;;;;;;4996611;28;20108;-72
2021/12/31 07:40:04;;;;;;;3.95;2.10;;;12.10;99.90;;;;;;4996214;28;20046;-72
2021/12/31 07:42:30;;;;;;;5.65;2.60;;;12.10;99.90;;;;;;4992868;28;20054;-73
2021/12/31 07:44:57;;;;;;;6.70;2.20;;;12.00;99.90;;;;;;4977156;28;20058;-72
2021/12/31 07:47:25;;;;;;;3.63;1.98;;;12.10;99.90;;;;;;4977033;28;20069;-72
2021/12/31 07:49:52;;;;;;;6.60;2.10;;;12.00;99.90;;;;;;4992701;28;20136;-72
2021/12/31 07:52:19;;;;;;;5.25;2.03;;;12.00;99.90;;;;;;4996423;28;20136;-71
2021/12/31 07:54:46;;;;;;;5.13;2.50;;;12.00;99.90;;;;;;4996114;28;20136;-72
2021/12/31 07:57:12;;;;;;;5.13;1.92;;;12.10;99.90;;;;;;4995621;28;20092;-72
2021/12/31 07:59:39;;;;;;;4.30;2.30;;;12.10;99.90;;;;;;4995924;28;20089;-72
2021/12/31 08:02:06;;;;;;;5.95;2.60;;;12.10;99.90;;;;;;4996069;28;20093;-73
2021/12/31 08:04:34;;;;;;;3.05;1.80;;;12.20;99.90;;;;;;4995318;28;20454;-73
2021/12/31 08:07:02;;;;;;;4.03;2.20;;;12.20;99.90;;;;;;4996247;28;20137;-73
2021/12/31 08:09:29;;;;;;;4.65;1.88;;;12.20;99.90;;;;;;4995554;28;20128;-72
2021/12/31 08:11:56;;;;;;;6.75;2.20;;;12.20;99.90;;;;;;4995228;28;20556;-73
2021/12/31 08:14:23;;;;;;;5.00;1.80;;;12.20;99.90;;;;;;5013453;28;20445;-72
2021/12/31 08:16:49;;;;;;;9.85;2.40;;;12.20;99.90;;;;;;4995489;28;20136;-73
2021/12/31 08:19:16;;;;;;;5.68;2.30;;;12.20;99.90;;;;;;4995575;28;20129;-72
2021/12/31 08:21:44;;;;;;;6.75;2.30;;;12.20;99.90;;;;;;4995671;28;20493;-72
2021/12/31 08:24:11;;;;;;;5.85;2.35;;;12.30;99.90;;;;;;4994767;28;20093;-72
2021/12/31 08:26:38;;;;;;;3.78;1.88;;;12.30;99.90;;;;;;4995974;28;20528;-72
2021/12/31 08:29:08;;;;;;;4.80;1.98;;;12.30;99.90;;;;;;4995639;28;20054;-73
2021/12/31 08:31:35;;;;;;;4.70;2.58;;;12.30;99.90;;;;;;4994744;28;20572;-72
2021/12/31 08:34:02;;;;;;;5.68;2.58;;;12.30;99.90;;;;;;4995592;28;20140;-72
2021/12/31 08:36:28;;;;;;;5.25;2.67;;;12.30;99.90;;;;;;4995573;28;20141;-73
2021/12/31 08:38:57;;;;;;;7.35;2.30;;;12.40;99.90;;;;;;4994628;28;20049;-72
2021/12/31 08:41:24;;;;;;;5.03;2.42;;;12.40;99.90;;;;;;4995387;28;20050;-72
2021/12/31 08:43:50;;;;;;;6.20;2.40;;;12.40;99.90;;;;;;4990700;28;20054;-73
2021/12/31 08:46:17;;;;;;;5.18;2.28;;;12.40;99.90;;;;;;4982038;28;20124;-73
2021/12/31 08:48:44;;;;;;;3.75;2.13;;;12.50;99.90;;;;;;4995520;28;20129;-73
2021/12/31 08:51:11;;;;;;;4.53;2.30;;;12.40;99.90;;;;;;4994968;28;20770;-73
2021/12/31 08:53:38;;;;;;;5.47;2.78;;;12.40;99.90;;;;;;4989442;28;20144;-72
2021/12/31 08:56:06;;;;;;;6.10;2.85;;;12.40;99.90;;;;;;4992903;28;20089;-72
2021/12/31 08:58:33;;;;;;;4.38;2.60;;;12.40;99.90;;;;;;4994021;28;20045;-72
2021/12/31 09:01:00;;;;;;;5.95;2.38;;;12.40;99.90;;;;;;5000168;28;20050;-72
2021/12/31 09:03:27;;;;;;;6.00;2.42;;;12.40;99.90;;;;;;4995185;28;20136;-71
2021/12/31 09:05:53;;;;;;;6.38;2.33;;;12.40;99.90;;;;;;4994571;28;20129;-72
2021/12/31 09:08:22;;;;;;;6.35;2.50;;;12.30;99.90;;;;;;4992378;28;20042;-72
2021/12/31 09:10:49;;;;;;;8.65;2.70;;;12.30;99.90;;;;;;4998750;28;20054;-72
2021/12/31 09:13:17;;;;;;;5.13;2.80;;;12.30;99.90;;;;;;4989462;28;20463;-71
2021/12/31 09:15:44;;;;;;;6.60;3.00;;;12.30;99.90;;;;;;4992625;28;20510;-73
2021/12/31 09:18:11;;;;;;;4.97;2.22;;;12.30;99.90;;;;;;4994200;28;20506;-72
2021/12/31 09:20:38;;;;;;;7.93;3.17;;;12.30;99.90;;;;;;4994360;28;20470;-73
2021/12/31 09:23:05;;;;;;;6.68;2.70;;;12.30;99.90;;;;;;4992959;28;20050;-72
2021/12/31 09:25:31;;;;;;;6.22;2.80;;;12.30;99.90;;;;;;4995772;28;20474;-72
2021/12/31 09:27:58;;;;;;;6.22;2.53;;;12.30;99.90;;;;;;5007600;28;20131;-73
2021/12/31 09:30:26;;;;;;;4.72;2.40;;;12.30;99.90;;;;;;5006216;28;20549;-71
2021/12/31 09:32:53;;;;;;;6.13;2.35;;;12.30;99.90;;;;;;5006013;28;20151;-72
2021/12/31 09:35:20;;;;;;;5.22;2.70;;;12.30;99.90;;;;;;5006217;28;20082;-71
2021/12/31 09:37:47;;;;;;;7.15;2.75;;;12.30;99.90;;;;;;5006398;28;20081;-72
2021/12/31 09:40:18;;;;;;;3.92;2.15;;;12.30;99.90;;;;;;4996712;28;20050;-72
2021/12/31 09:42:52;;;;;;;5.60;2.60;;;12.30;99.90;;;;;;4997494;28;20156;-72
2021/12/31 09:45:19;;;;;;;6.35;2.60;;;12.30;99.90;;;;;;4994264;28;20144;-72
2021/12/31 09:47:47;;;;;;;4.45;2.30;;;12.30;99.90;;;;;;4996098;28;20046;-72
2021/12/31 09:50:14;;;;;;;4.78;2.80;;;12.30;99.90;;;;;;4994411;28;20663;-73
2021/12/31 09:52:42;;;;;;;5.90;2.38;;;12.30;99.90;;;;;;5004716;28;20058;-73
2021/12/31 09:55:09;;;;;;;9.07;3.10;;;12.30;99.90;;;;;;5013545;28;20514;-73
2021/12/31 09:57:36;;;;;;;9.43;3.90;;;12.20;99.90;;;;;;4992290;28;20121;-73
2021/12/31 10:00:04;;;;;;;10.23;2.83;;;12.20;99.90;;;;;;4991824;28;20469;-72
2021/12/31 10:02:33;;;;;;;8.60;3.00;;;12.10;99.90;;;;;;4992993;28;20085;-73
2021/12/31 10:05:03;;;;;;;5.47;3.17;;;12.10;99.90;;;;;;4993635;28;20053;-73
2021/12/31 10:07:30;;;;;;;5.28;3.38;;;12.00;99.90;;;;;;4993044;28;20082;-71
2021/12/31 10:10:10;;;;;;;9.18;3.13;;;11.90;99.90;;;;;;4984897;28;20054;-72
2021/12/31 10:12:51;;;;;;;6.43;3.28;;;11.80;99.90;;;;;;4988837;28;20049;-72
2021/12/31 10:15:21;;;;;;;5.32;3.15;;;11.80;99.90;;;;;;5008508;28;20050;-72
2021/12/31 10:17:47;;;;;;;7.50;3.83;;;11.70;99.90;;;;;;5001069;28;20049;-72
2021/12/31 10:20:17;;;;;;;8.73;4.00;;;11.80;99.90;;;;;;5012105;28;20054;-72
2021/12/31 10:22:45;;;;;;;11.18;4.75;;;11.70;99.90;;;;;;4992275;28;20097;-72
2021/12/31 10:25:20;;;;;;;11.15;3.72;;;11.70;99.90;;;;;;5000366;28;20085;-72
2021/12/31 10:27:47;;;;;;;13.18;3.78;;;11.60;99.90;;;;;;4994102;28;20080;-72
2021/12/31 10:30:14;;;;;;;6.32;3.25;;;11.60;99.90;;;;;;4991515;28;20085;-73
2021/12/31 10:32:47;;;;;;;8.93;3.60;;;11.60;99.90;;;;;;4993962;28;20058;-73
2021/12/31 10:35:18;;;;;;;8.10;3.95;;;11.60;99.90;;;;;;4995071;28;20087;-72
2021/12/31 10:37:46;;;;;;;7.72;3.40;;;11.60;99.90;;;;;;5003151;28;20057;-72
2021/12/31 10:40:25;;;;;;;5.63;3.10;;;11.60;99.90;;;;;;4994587;28;20082;-72
2021/12/31 10:43:07;;;;;;;6.75;2.95;;;11.60;99.90;;;;;;4993098;28;20113;-73
2021/12/31 10:45:35;;;;;;;6.80;3.53;;;11.60;99.90;;;;;;4999668;28;20401;-72
2021/12/31 10:48:06;;;;;;;6.85;3.13;;;11.60;99.90;;;;;;4993751;28;20100;-73
2021/12/31 10:50:35;;;;;;;7.93;3.35;;;11.60;99.90;;;;;;4989642;28;20046;-71
2021/12/31 10:53:08;;;;;;;6.38;3.88;;;11.60;99.90;;;;;;4992455;28;20050;-73
2021/12/31 10:55:39;;;;;;;11.80;3.70;;;11.60;99.90;;;;;;5003445;28;20549;-72
2021/12/31 10:58:10;;;;;;;6.30;2.85;;;11.60;99.90;;;;;;4994918;28;20409;-73
2021/12/31 11:00:39;;;;;;;7.53;3.20;;;11.60;99.90;;;;;;4993222;28;20604;-73
2021/12/31 11:03:06;;;;;;;6.93;3.30;;;11.60;99.90;;;;;;4997373;28;20120;-72
2021/12/31 11:05:35;;;;;;;11.98;4.03;;;11.60;99.90;;;;;;5000352;28;20085;-73
2021/12/31 11:08:03;;;;;;;5.70;3.38;;;11.60;99.90;;;;;;4994447;28;20088;-72
2021/12/31 11:10:34;;;;;;;10.18;4.97;;;11.70;99.90;;;;;;4992520;28;20505;-74
2021/12/31 11:13:03;;;;;;;;;;;11.60;99.90;;;;;;5001793;28;20572;-75
2021/12/31 11:15:30;;;;;;;8.63;4.00;;;12.00;99.90;;;;;;5001295;28;19957;-74
2021/12/31 11:17:56;;;;;;;9.55;3.70;;;11.60;99.90;;;;;;4989339;28;20129;-74
2021/12/31 11:20:25;;;;;;;9.90;3.90;;;11.60;99.90;;;;;;4992811;28;20522;-74
2021/12/31 11:22:53;;;;;;;11.45;4.30;;;11.50;99.90;;;;;;4993730;28;20125;-74
2021/12/31 11:25:22;;;;;;;6.85;4.18;;;11.50;99.90;;;;;;4996121;28;20631;-73
2021/12/31 11:27:51;;;;;;;6.00;4.07;;;11.40;99.90;;;;;;5003203;28;20056;-74
2021/12/31 11:30:32;;;;;;;10.43;4.65;;;11.40;99.90;;;;;;5010936;28;20050;-74
2021/12/31 11:33:01;;;;;;;10.82;4.28;;;11.40;99.90;;;;;;5006474;28;20068;-74
2021/12/31 11:35:37;;;;;;;11.98;4.30;;;11.40;99.90;;;;;;4990408;28;20088;-72
2021/12/31 11:38:07;;;;;;;6.68;3.60;;;11.40;99.90;;;;;;4992411;28;20509;-73
2021/12/31 11:40:37;;;;;;;8.75;4.18;;;11.40;99.90;;;;;;4992473;28;20054;-74
2021/12/31 11:43:23;;;;;;;14.80;4.60;;;11.40;99.90;;;;;;5004439;28;20131;-73
2021/12/31 11:46:23;;;;;;;7.47;3.95;;;11.30;99.90;;;;;;4990058;28;20140;-73
2021/12/31 11:48:57;;;;;;;8.13;4.00;;;11.30;99.90;;;;;;4987200;28;20568;-74
2021/12/31 11:51:28;;;;;;;11.57;4.28;;;11.30;99.90;;;;;;4980015;28;20149;-74
2021/12/31 11:54:13;;;;;;;;;;;11.20;99.90;;;;;;4987935;28;20058;-74
2021/12/31 11:57:05;;;;;;;8.65;4.50;;;11.20;99.90;;;;;;4985774;28;20379;-74
2021/12/31 11:59:56;;;;;;;8.90;4.05;;;11.20;99.90;;;;;;4975350;28;20050;-73
2021/12/31 12:02:34;;;;;;;10.77;4.93;;;11.20;99.90;;;;;;4989588;28;20057;-73
2021/12/31 12:05:15;;;;;;;10.15;4.00;;;11.20;99.90;;;;;;4984851;28;20078;-73
2021/12/31 12:07:52;;;;;;;11.32;4.60;;;11.10;99.90;;;;;;4986001;28;20109;-72
2021/12/31 12:10:28;;;;;;;6.60;4.05;;;11.10;99.90;;;;;;4982565;28;20086;-72
2021/12/31 12:13:20;;;;;;;8.98;4.88;;;11.30;99.90;;;;;;4991905;28;20050;-72
2021/12/31 12:15:47;;;;;;;6.93;4.22;;;11.20;99.90;;;;;;4990624;28;20054;-72
2021/12/31 12:18:16;;;;;;;8.30;4.20;;;11.20;99.90;;;;;;5000244;28;20058;-72
2021/12/31 12:20:45;;;;;;;7.93;4.97;;;11.20;99.90;;;;;;4984904;28;20105;-73
2021/12/31 12:23:21;;;;;;;7.53;3.90;;;11.60;99.90;;;;;;4987441;28;20073;-72
2021/12/31 12:25:48;;;;;;;8.45;4.80;;;11.10;99.90;;;;;;4986363;28;20502;-73
2021/12/31 12:28:20;;;;;;;7.70;3.33;;;11.10;99.90;;;;;;4982128;28;20124;-73
2021/12/31 12:31:03;;;;;;;6.10;3.90;;;11.20;99.90;;;;;;4976298;28;20478;-72
2021/12/31 12:33:30;;;;;;;6.82;4.57;;;11.10;99.90;;;;;;4987465;28;20101;-72
2021/12/31 12:35:57;;;;;;;7.72;4.88;;;11.20;99.90;;;;;;4987013;28;20136;-70
2021/12/31 12:38:26;;;;;;;8.32;3.70;;;11.20;99.90;;;;;;4990808;28;20727;-72
2021/12/31 12:40:55;;;;;;;8.43;3.83;;;11.20;99.90;;;;;;4986802;28;20042;-72
2021/12/31 12:43:28;;;;;;;5.65;3.80;;;11.10;99.90;;;;;;5012087;28;20129;-72
2021/12/31 12:45:57;;;;;;;6.85;3.80;;;11.10;99.90;;;;;;5000532;28;20112;-72
2021/12/31 12:48:31;;;;;;;8.00;3.90;;;11.10;99.90;;;;;;4984975;28;20085;-72
2021/12/31 12:50:59;;;;;;;7.68;4.45;;;11.20;99.90;;;;;;4985292;28;20054;-73